Coober Pedy, South Australia

11:07 AM ACST on July 24, 2016 (GMT +0930)
Coober Pedy | | Change Station

Elev 663 ft 29.00 °S, 134.76 °E | Updated 11 seconds ago

Clear
Clear
57.2 °F
Feels Like 57.2 °F
N
12.1
Wind Variable Wind from SW
Gusts 15.0 mph

Today
High -- | Low -- °F
--% Chance of Precip.
Yesterday
High -- | Low -- °F
Precip. -- in
Pressure 30.12 in
Visibility -9999.0 miles
Clouds
Dew Point 19 °F
Humidity 22%
Rainfall 0.00 in
Snow Depth Not available.
7:19 AM 5:55 PM
Waning Gibbous, 81% visible
METAR YCBP 240100Z AUTO 26021KT //// // NCD 13/01 Q1020
Pressure 30.12 in
Visibility -9999.0 miles
Clouds
Dew Point 19 °F
Humidity 22%
Rainfall 0.00 in
Snow Depth Not available.
7:19 AM 5:55 PM
Waning Gibbous, 81% visible
METAR YCBP 240100Z AUTO 26021KT //// // NCD 13/01 Q1020

10-Day Weather Forecast

No radar image for this location.
×

Almanac

Astronomy

Jul. 24, 2016 Rise Set
Actual Time
Civil Twilight
Nautical Twilight
Astronomical Twilight
Moon
Length of Visible Light
Length of Day
Tomorrow will be .
, % of the Moon is Illuminated

Today's Extremes

Country Highs Country Lows

Community

WunderPhotos

Upload Photos

1,926,994 photos uploaded!

WunderBlog® & News

Nearby

Air Quality

  Air Quality AQ Index Pollutant
Not available.

Snow Depth

Station Depth Elevation

Earthquake Activity

City Distance Mag. Time & Date
Minimum magnitude displayed is 2.5.

Coastal Water Temperatures

Place Temperature

Stations

Nearby Weather Stations

Station Location Temp. Windchill Dew Point Humidity Wind Precip. Elev Updated Type